createdAt,value
2022-08-31T00:00:25.218Z,52.71
2022-08-31T00:03:18.654Z,52.56
2022-08-31T00:05:52.818Z,52.98
2022-08-31T00:08:23.654Z,53.14
2022-08-31T00:10:55.701Z,52.59
2022-08-31T00:13:27.445Z,52.65
2022-08-31T00:15:58.999Z,52.66
2022-08-31T00:18:29.843Z,53.17
2022-08-31T00:21:04.059Z,53.15
2022-08-31T00:23:34.970Z,53.39
2022-08-31T00:26:05.919Z,53.59
2022-08-31T00:28:36.917Z,53.59
2022-08-31T00:31:07.244Z,53.88
2022-08-31T00:33:37.554Z,54.39
2022-08-31T00:36:13.792Z,54.83
2022-08-31T00:38:45.027Z,54.83
2022-08-31T00:41:14.932Z,55.46
2022-08-31T00:43:49.863Z,55.47
2022-08-31T00:46:22.688Z,55.50
2022-08-31T00:48:58.630Z,55.30
2022-08-31T00:51:32.946Z,55.23
2022-08-31T00:54:03.748Z,55.50
2022-08-31T00:56:34.075Z,55.56
2022-08-31T00:59:05.166Z,55.64
2022-08-31T01:01:35.484Z,55.42
2022-08-31T01:04:06.994Z,55.73
2022-08-31T01:06:40.999Z,54.93
2022-08-31T01:09:13.095Z,55.48
2022-08-31T01:11:45.022Z,55.87
2022-08-31T01:14:15.576Z,55.71
2022-08-31T01:16:48.511Z,55.75
2022-08-31T01:19:28.221Z,55.55
2022-08-31T01:22:09.676Z,55.97
2022-08-31T01:24:46.658Z,56.30
2022-08-31T01:27:19.190Z,56.60
2022-08-31T01:29:49.662Z,56.84
2022-08-31T01:32:19.834Z,56.54
2022-08-31T01:34:50.301Z,56.67
2022-08-31T01:37:20.693Z,56.87
2022-08-31T01:40:02.413Z,57.31
2022-08-31T01:42:34.221Z,57.17
2022-08-31T01:45:05.657Z,57.72
2022-08-31T01:47:35.793Z,57.77
2022-08-31T01:50:07.375Z,58.01
2022-08-31T01:52:39.264Z,58.27
2022-08-31T01:55:12.694Z,57.89
2022-08-31T01:57:42.843Z,57.67
2022-08-31T02:00:14.644Z,57.72
2022-08-31T02:02:44.749Z,57.54
2022-08-31T02:05:15.066Z,57.72
2022-08-31T02:07:45.029Z,57.22
2022-08-31T02:10:17.566Z,57.42
2022-08-31T02:12:47.739Z,57.22
2022-08-31T02:15:18.115Z,56.96
2022-08-31T02:17:48.260Z,56.76
2022-08-31T02:20:23.268Z,57.03
2022-08-31T02:22:53.617Z,57.13
2022-08-31T02:25:26.004Z,57.25
2022-08-31T02:27:56.211Z,57.06
2022-08-31T02:30:26.159Z,56.88
2022-08-31T02:32:56.100Z,57.05
2022-08-31T02:35:26.262Z,57.01
2022-08-31T02:37:56.296Z,56.90
2022-08-31T02:40:28.711Z,57.11
2022-08-31T02:42:59.008Z,56.83
2022-08-31T02:45:28.848Z,56.70
2022-08-31T02:47:58.713Z,57.36
2022-08-31T02:50:28.847Z,56.92
2022-08-31T02:52:58.702Z,56.98
2022-08-31T02:55:31.193Z,57.38
2022-08-31T02:58:01.326Z,57.40
2022-08-31T03:00:31.332Z,57.67
2022-08-31T03:03:01.440Z,57.67
2022-08-31T03:05:31.623Z,57.29
2022-08-31T03:08:01.482Z,57.44
2022-08-31T03:10:34.237Z,58.11
2022-08-31T03:13:04.815Z,57.90
2022-08-31T03:15:34.853Z,57.79
2022-08-31T03:18:06.911Z,57.86
2022-08-31T03:20:37.450Z,57.98
2022-08-31T03:23:07.723Z,58.35
2022-08-31T03:25:41.095Z,58.67
2022-08-31T03:28:13.739Z,58.18
2022-08-31T03:30:44.025Z,58.45
2022-08-31T03:33:14.785Z,58.23
2022-08-31T03:35:46.125Z,58.70
2022-08-31T03:38:16.853Z,58.51
2022-08-31T03:40:50.974Z,58.91
2022-08-31T03:43:21.590Z,58.95
2022-08-31T03:45:51.643Z,59.10
2022-08-31T03:48:21.543Z,58.94
2022-08-31T03:50:51.717Z,59.08
2022-08-31T03:53:23.022Z,58.62
2022-08-31T03:56:01.893Z,58.86
2022-08-31T03:58:32.883Z,59.26
2022-08-31T04:01:03.339Z,59.22
2022-08-31T04:03:33.724Z,58.98
2022-08-31T04:06:04.239Z,59.41
2022-08-31T04:08:34.378Z,59.16
2022-08-31T04:11:10.239Z,59.55
2022-08-31T04:13:41.718Z,59.84
2022-08-31T04:16:13.828Z,59.79
2022-08-31T04:18:46.472Z,59.67
2022-08-31T04:21:18.019Z,60.08
2022-08-31T04:23:49.019Z,60.41
2022-08-31T04:26:23.825Z,60.33
2022-08-31T04:28:55.469Z,60.48
2022-08-31T04:31:27.587Z,60.92
2022-08-31T04:34:00.269Z,60.26
2022-08-31T04:36:31.616Z,60.62
2022-08-31T04:39:04.119Z,60.22
2022-08-31T04:41:40.008Z,60.68
2022-08-31T04:44:12.323Z,60.57
2022-08-31T04:46:44.892Z,60.23
2022-08-31T04:49:15.629Z,60.21
2022-08-31T04:51:47.178Z,59.92
2022-08-31T04:54:17.371Z,60.59
2022-08-31T04:56:49.853Z,60.53
2022-08-31T04:59:26.064Z,60.81
2022-08-31T05:01:58.672Z,60.39
2022-08-31T05:04:29.213Z,60.84
2022-08-31T05:06:59.246Z,60.52
2022-08-31T05:09:29.475Z,60.50
2022-08-31T05:12:02.459Z,60.72
2022-08-31T05:14:32.312Z,60.35
2022-08-31T05:17:03.315Z,60.48
2022-08-31T05:19:35.999Z,60.88
2022-08-31T05:22:09.302Z,60.41
2022-08-31T05:24:39.148Z,60.96
2022-08-31T05:27:11.556Z,60.74
2022-08-31T05:29:41.653Z,60.49
2022-08-31T05:32:11.481Z,60.91
2022-08-31T05:34:41.913Z,60.44
2022-08-31T05:37:11.741Z,60.40
2022-08-31T05:39:42.012Z,60.27
2022-08-31T05:42:15.580Z,60.06
2022-08-31T05:44:45.491Z,60.08
2022-08-31T05:47:15.654Z,59.55
2022-08-31T05:49:46.995Z,59.43
2022-08-31T05:52:18.858Z,59.81
2022-08-31T05:54:54.963Z,59.87
2022-08-31T05:57:27.643Z,60.13
2022-08-31T05:59:58.535Z,59.91
2022-08-31T06:02:29.661Z,60.00
2022-08-31T06:04:59.995Z,59.90
2022-08-31T06:07:30.258Z,59.65
2022-08-31T06:10:01.391Z,60.01
2022-08-31T06:12:34.356Z,59.88
2022-08-31T06:15:05.715Z,60.27
2022-08-31T06:17:35.878Z,59.89
2022-08-31T06:20:07.406Z,60.44
2022-08-31T06:22:38.292Z,60.12
2022-08-31T06:25:10.372Z,60.16
2022-08-31T06:27:44.118Z,59.64
2022-08-31T06:30:22.022Z,59.30
2022-08-31T06:32:58.469Z,59.28
2022-08-31T06:35:29.316Z,59.20
2022-08-31T06:38:00.168Z,58.84
2022-08-31T06:40:30.250Z,58.96
2022-08-31T06:43:08.172Z,58.81
2022-08-31T06:45:40.174Z,58.69
2022-08-31T06:48:13.045Z,58.93
2022-08-31T06:50:42.932Z,58.69
2022-08-31T06:53:14.176Z,58.04
2022-08-31T06:55:44.252Z,58.35
2022-08-31T06:58:17.142Z,57.72
2022-08-31T07:00:48.580Z,56.96
2022-08-31T07:03:33.315Z,57.38
2022-08-31T07:06:08.529Z,57.99
2022-08-31T07:08:39.104Z,57.15
2022-08-31T07:11:14.393Z,57.05
2022-08-31T07:13:47.329Z,56.94
2022-08-31T07:16:20.685Z,56.94
2022-08-31T07:18:55.027Z,56.81
2022-08-31T07:21:31.222Z,56.40
2022-08-31T07:24:08.066Z,55.29
2022-08-31T07:26:42.657Z,55.10
2022-08-31T07:29:18.338Z,55.19
2022-08-31T07:31:49.244Z,54.65
2022-08-31T07:34:25.740Z,54.30
2022-08-31T07:37:13.914Z,54.48
2022-08-31T07:39:58.235Z,53.82
2022-08-31T07:42:31.502Z,54.56
2022-08-31T07:45:07.335Z,54.57
2022-08-31T07:47:46.521Z,54.47
2022-08-31T07:50:18.775Z,54.42
2022-08-31T07:52:56.307Z,54.60
2022-08-31T07:55:35.293Z,54.66
2022-08-31T07:58:05.431Z,53.69
2022-08-31T08:00:54.719Z,53.94
2022-08-31T08:03:33.921Z,53.40
2022-08-31T08:06:12.525Z,53.03
2022-08-31T08:08:43.881Z,52.96
2022-08-31T08:11:21.341Z,52.20
2022-08-31T08:13:59.787Z,51.67
2022-08-31T08:16:49.042Z,51.31
2022-08-31T08:19:29.178Z,50.88
2022-08-31T08:22:06.445Z,50.63
2022-08-31T08:24:51.115Z,51.23
2022-08-31T08:27:30.131Z,51.20
2022-08-31T08:30:24.603Z,51.31
2022-08-31T08:33:30.220Z,50.49
2022-08-31T08:36:07.912Z,49.35
2022-08-31T08:38:46.417Z,48.82
2022-08-31T08:41:23.493Z,46.74
2022-08-31T08:43:57.544Z,47.22
2022-08-31T08:46:36.304Z,47.77
2022-08-31T08:49:18.132Z,46.79
2022-08-31T08:51:51.499Z,46.71
2022-08-31T08:54:31.467Z,44.84
2022-08-31T08:57:02.275Z,44.48
2022-08-31T08:59:32.480Z,44.08
2022-08-31T09:02:06.581Z,44.48
2022-08-31T09:05:02.606Z,43.40
2022-08-31T09:07:47.239Z,43.89
2022-08-31T09:10:28.355Z,43.97
2022-08-31T09:13:09.207Z,43.93
2022-08-31T09:15:55.416Z,43.18
2022-08-31T09:18:39.106Z,42.43
2022-08-31T09:21:20.865Z,42.64
2022-08-31T09:23:56.085Z,42.84
2022-08-31T09:26:27.867Z,41.94
2022-08-31T09:28:58.629Z,41.88
2022-08-31T09:31:37.957Z,41.49
2022-08-31T09:34:14.442Z,40.86
2022-08-31T09:36:47.508Z,39.95
2022-08-31T09:39:20.386Z,39.08
2022-08-31T09:41:55.006Z,38.33
2022-08-31T09:44:35.293Z,39.05
2022-08-31T09:47:08.274Z,38.71
2022-08-31T09:49:39.974Z,37.82
2022-08-31T09:52:42.638Z,38.22
2022-08-31T09:55:21.415Z,37.65
2022-08-31T09:57:57.660Z,37.44
2022-08-31T10:00:33.234Z,37.92
2022-08-31T10:03:13.563Z,37.53
2022-08-31T10:05:45.036Z,36.96
2022-08-31T10:08:33.202Z,35.35
2022-08-31T10:11:11.485Z,36.31
2022-08-31T10:13:45.881Z,35.45
2022-08-31T10:16:26.023Z,34.60
2022-08-31T10:19:02.707Z,34.51
2022-08-31T10:21:44.418Z,34.87
2022-08-31T10:24:28.109Z,34.06
2022-08-31T10:27:10.168Z,34.90
2022-08-31T10:29:46.160Z,35.84
2022-08-31T10:32:30.532Z,35.26
2022-08-31T10:35:10.142Z,35.27
2022-08-31T10:37:58.536Z,33.99
2022-08-31T10:40:35.884Z,34.40
2022-08-31T10:43:17.739Z,34.04
2022-08-31T10:45:51.915Z,33.32
2022-08-31T10:48:24.703Z,34.01
2022-08-31T10:51:09.225Z,34.65
2022-08-31T10:53:57.894Z,35.13
2022-08-31T10:56:39.924Z,35.35
2022-08-31T10:59:22.011Z,35.05
2022-08-31T11:01:59.914Z,34.90
2022-08-31T11:04:55.690Z,33.90
2022-08-31T11:07:39.179Z,32.96
2022-08-31T11:10:23.886Z,32.38
2022-08-31T11:13:02.010Z,32.47
2022-08-31T11:15:59.913Z,31.42
2022-08-31T11:19:09.404Z,31.66
2022-08-31T11:22:13.037Z,31.64
2022-08-31T11:25:04.006Z,35.11
2022-08-31T11:27:38.186Z,32.18
2022-08-31T11:30:24.671Z,31.34
2022-08-31T11:32:57.489Z,29.54
2022-08-31T11:36:07.664Z,29.69
2022-08-31T11:39:13.193Z,31.34
2022-08-31T11:41:46.920Z,30.62
2022-08-31T11:44:47.096Z,28.49
2022-08-31T11:47:42.491Z,28.95
2022-08-31T11:50:56.588Z,29.16
2022-08-31T11:53:36.787Z,28.66
2022-08-31T11:56:07.660Z,28.16
2022-08-31T11:58:42.277Z,26.98
2022-08-31T12:01:43.051Z,27.76
2022-08-31T12:05:00.410Z,27.35
2022-08-31T12:07:41.508Z,27.29
2022-08-31T12:10:35.721Z,28.05
2022-08-31T12:13:26.197Z,27.20
2022-08-31T12:16:21.771Z,26.11
2022-08-31T12:19:09.289Z,24.56
2022-08-31T12:22:05.161Z,26.91
2022-08-31T12:24:49.505Z,26.11
2022-08-31T12:27:29.213Z,26.41
2022-08-31T12:30:17.804Z,27.35
2022-08-31T12:32:49.531Z,27.10
2022-08-31T12:35:23.888Z,27.04
2022-08-31T12:38:02.030Z,26.95
2022-08-31T12:40:36.588Z,26.72
2022-08-31T12:43:12.642Z,27.39
2022-08-31T12:46:06.270Z,27.96
2022-08-31T12:49:09.120Z,26.69
2022-08-31T12:51:44.908Z,26.42
2022-08-31T12:54:48.564Z,25.67
2022-08-31T12:57:38.672Z,24.22
2022-08-31T13:00:15.953Z,25.42
2022-08-31T13:02:49.617Z,24.95
2022-08-31T13:05:25.078Z,24.11
2022-08-31T13:07:55.684Z,25.47
2022-08-31T13:10:36.347Z,24.25
2022-08-31T13:13:13.516Z,23.92
2022-08-31T13:15:45.971Z,24.01
2022-08-31T13:18:19.758Z,23.46
2022-08-31T13:20:50.945Z,23.43
2022-08-31T13:23:30.233Z,23.55
2022-08-31T13:26:05.933Z,23.21
2022-08-31T13:28:39.643Z,22.58
2022-08-31T13:31:12.113Z,21.68
2022-08-31T13:33:43.227Z,21.49
2022-08-31T13:36:32.330Z,22.82
2022-08-31T13:39:07.054Z,22.48
2022-08-31T13:41:40.295Z,22.24
2022-08-31T13:44:19.286Z,21.67
2022-08-31T13:47:06.242Z,22.43
2022-08-31T13:49:46.186Z,22.40
2022-08-31T13:52:22.045Z,21.73
2022-08-31T13:55:01.934Z,22.77
2022-08-31T13:57:36.047Z,21.54
2022-08-31T14:00:41.225Z,22.59
2022-08-31T14:03:46.728Z,20.94
2022-08-31T14:06:26.439Z,21.01
2022-08-31T14:09:00.282Z,20.68
2022-08-31T14:11:30.652Z,21.36
2022-08-31T14:14:08.815Z,20.88
2022-08-31T14:16:51.930Z,20.89
2022-08-31T14:19:32.938Z,20.00
2022-08-31T14:22:25.599Z,20.16
2022-08-31T14:25:02.698Z,20.22
2022-08-31T14:27:41.745Z,20.94
2022-08-31T14:30:12.677Z,20.59
2022-08-31T14:32:46.351Z,20.63
2022-08-31T14:35:16.243Z,21.00
2022-08-31T14:37:46.796Z,21.78
2022-08-31T14:40:16.686Z,22.41
2022-08-31T14:42:47.038Z,21.82
2022-08-31T14:45:21.950Z,22.36
2022-08-31T14:48:18.830Z,22.74
2022-08-31T14:51:34.130Z,22.42
2022-08-31T14:54:09.176Z,22.46
2022-08-31T14:56:48.366Z,21.25
2022-08-31T14:59:28.862Z,20.67
2022-08-31T15:02:07.356Z,19.22
2022-08-31T15:05:01.378Z,19.09
2022-08-31T15:08:00.106Z,17.79
2022-08-31T15:10:41.298Z,17.41
2022-08-31T15:13:13.758Z,16.59
2022-08-31T15:15:47.575Z,16.50
2022-08-31T15:18:18.042Z,16.80
2022-08-31T15:20:55.953Z,17.26
2022-08-31T15:23:26.093Z,16.80
2022-08-31T15:26:06.595Z,16.54
2022-08-31T15:28:41.031Z,16.38
2022-08-31T15:31:14.369Z,16.34
2022-08-31T15:33:47.469Z,16.30
2022-08-31T15:36:24.979Z,16.48
2022-08-31T15:38:57.231Z,16.55
2022-08-31T15:41:31.181Z,16.96
2022-08-31T15:44:02.724Z,18.04
2022-08-31T15:46:45.473Z,18.10
2022-08-31T15:49:17.859Z,18.46
2022-08-31T15:51:53.962Z,18.44
2022-08-31T15:54:26.211Z,18.80
2022-08-31T15:56:58.220Z,18.78
2022-08-31T15:59:28.073Z,18.58
2022-08-31T16:01:59.715Z,19.32
2022-08-31T16:04:29.733Z,19.09
2022-08-31T16:07:05.144Z,18.97
2022-08-31T16:09:35.526Z,19.67
2022-08-31T16:12:10.399Z,19.38
2022-08-31T16:14:43.756Z,20.37
2022-08-31T16:17:19.932Z,19.61
2022-08-31T16:19:50.451Z,20.11
2022-08-31T16:22:30.426Z,20.06
2022-08-31T16:25:00.910Z,20.66
2022-08-31T16:27:33.942Z,20.32
2022-08-31T16:30:06.992Z,20.47
2022-08-31T16:32:37.371Z,20.12
2022-08-31T16:35:08.578Z,21.02
2022-08-31T16:37:41.551Z,20.54
2022-08-31T16:40:13.802Z,20.89
2022-08-31T16:42:46.526Z,20.94
2022-08-31T16:45:16.457Z,20.90
2022-08-31T16:47:46.333Z,21.27
2022-08-31T16:50:15.105Z,20.68
2022-08-31T16:52:51.011Z,21.49
2022-08-31T16:55:24.564Z,21.42
2022-08-31T16:57:54.664Z,22.42
2022-08-31T17:00:39.770Z,22.75
2022-08-31T17:03:35.475Z,22.96
2022-08-31T17:06:25.867Z,22.46
2022-08-31T17:09:04.160Z,23.56
2022-08-31T17:11:49.069Z,22.91
2022-08-31T17:14:24.424Z,23.22
2022-08-31T17:20:16.201Z,23.58
2022-08-31T17:22:53.849Z,23.70
2022-08-31T17:25:27.665Z,23.04
2022-08-31T17:28:01.043Z,23.51
2022-08-31T17:30:32.331Z,23.63
2022-08-31T17:33:04.509Z,24.41
2022-08-31T17:35:34.443Z,24.85
2022-08-31T17:38:05.948Z,25.12
2022-08-31T17:40:40.823Z,25.80
2022-08-31T17:43:11.826Z,25.84
2022-08-31T17:45:41.842Z,26.60
2022-08-31T17:48:12.157Z,26.54
2022-08-31T17:50:44.916Z,27.07
2022-08-31T17:53:15.123Z,26.92
2022-08-31T17:55:56.278Z,27.44
2022-08-31T17:58:26.526Z,27.72
2022-08-31T18:00:56.604Z,28.45
2022-08-31T18:03:26.585Z,28.34
2022-08-31T18:05:56.912Z,28.62
2022-08-31T18:08:26.972Z,29.05
2022-08-31T18:10:59.966Z,29.26
2022-08-31T18:13:29.808Z,29.35
2022-08-31T18:16:03.148Z,29.24
2022-08-31T18:18:33.143Z,29.06
2022-08-31T18:21:08.193Z,30.02
2022-08-31T18:23:38.067Z,29.92
2022-08-31T18:26:19.364Z,29.81
2022-08-31T18:28:50.260Z,29.87
2022-08-31T18:31:25.062Z,30.12
2022-08-31T18:33:56.006Z,30.60
2022-08-31T18:36:27.929Z,30.13
2022-08-31T18:39:01.168Z,30.42
2022-08-31T18:41:46.943Z,30.40
2022-08-31T18:44:31.121Z,30.88
2022-08-31T18:47:03.149Z,31.15
2022-08-31T18:49:38.831Z,31.44
2022-08-31T18:52:11.706Z,31.43
2022-08-31T18:54:42.104Z,32.02
2022-08-31T18:57:21.044Z,31.72
2022-08-31T18:59:51.821Z,31.57
2022-08-31T19:02:31.592Z,31.82
2022-08-31T19:05:07.801Z,31.83
2022-08-31T19:07:38.966Z,31.74
2022-08-31T19:10:12.956Z,32.00
2022-08-31T19:12:47.283Z,32.07
2022-08-31T19:15:17.879Z,32.29
2022-08-31T19:17:49.342Z,32.27
2022-08-31T19:20:19.605Z,32.39
2022-08-31T19:22:49.764Z,32.95
2022-08-31T19:25:20.314Z,32.83
2022-08-31T19:27:54.838Z,33.42
2022-08-31T19:30:28.245Z,33.05
2022-08-31T19:32:59.363Z,34.00
2022-08-31T19:35:29.254Z,33.97
2022-08-31T19:37:59.469Z,33.86
2022-08-31T19:40:38.372Z,33.47
2022-08-31T19:46:16.981Z,33.79
2022-08-31T19:48:47.974Z,34.13
2022-08-31T19:51:20.907Z,34.45
2022-08-31T19:53:54.987Z,34.68
2022-08-31T19:56:29.640Z,34.49
2022-08-31T19:59:02.645Z,34.55
2022-08-31T20:01:34.312Z,34.97
2022-08-31T20:04:16.348Z,35.64
2022-08-31T20:06:48.131Z,35.63
2022-08-31T20:09:20.157Z,35.85
2022-08-31T20:11:50.142Z,35.72
2022-08-31T20:14:24.461Z,36.01
2022-08-31T20:16:54.917Z,35.91
2022-08-31T20:19:28.165Z,36.82
2022-08-31T20:22:07.929Z,38.02
2022-08-31T20:24:43.963Z,36.99
2022-08-31T20:27:16.567Z,37.86
2022-08-31T20:29:51.661Z,37.46
2022-08-31T20:32:21.728Z,37.99
2022-08-31T20:34:53.199Z,38.46
2022-08-31T20:37:24.644Z,38.90
2022-08-31T20:39:54.822Z,38.78
2022-08-31T20:42:26.478Z,39.29
2022-08-31T20:44:59.106Z,39.63
2022-08-31T20:47:41.426Z,38.74
2022-08-31T20:50:11.878Z,39.72
2022-08-31T20:52:41.907Z,39.55
2022-08-31T20:55:14.259Z,39.70
2022-08-31T20:57:45.108Z,39.80
2022-08-31T21:00:19.802Z,40.19
2022-08-31T21:02:49.986Z,40.53
2022-08-31T21:05:38.691Z,41.33
2022-08-31T21:08:09.354Z,41.04
2022-08-31T21:10:41.376Z,41.39
2022-08-31T21:13:14.669Z,41.52
2022-08-31T21:15:49.069Z,40.93
2022-08-31T21:18:19.612Z,41.87
2022-08-31T21:20:51.607Z,41.67
2022-08-31T21:23:21.710Z,41.61
2022-08-31T21:25:52.031Z,41.38
2022-08-31T21:28:22.175Z,41.81
2022-08-31T21:30:54.620Z,41.50
2022-08-31T21:33:24.799Z,41.78
2022-08-31T21:36:04.429Z,42.58
2022-08-31T21:38:34.843Z,42.56
2022-08-31T21:41:06.522Z,42.47
2022-08-31T21:43:37.395Z,43.27
2022-08-31T21:46:14.054Z,42.83
2022-08-31T21:48:46.867Z,42.36
2022-08-31T21:51:19.358Z,42.46
2022-08-31T21:53:54.371Z,43.48
2022-08-31T21:56:26.579Z,43.56
2022-08-31T21:58:58.598Z,43.65
2022-08-31T22:01:31.470Z,44.09
2022-08-31T22:04:02.636Z,44.46
2022-08-31T22:06:33.952Z,43.27
2022-08-31T22:09:07.829Z,44.26
2022-08-31T22:11:41.605Z,43.18
2022-08-31T22:14:13.085Z,43.63
2022-08-31T22:16:48.140Z,43.54
2022-08-31T22:19:25.609Z,43.63
2022-08-31T22:21:59.033Z,44.09
2022-08-31T22:24:32.189Z,43.94
2022-08-31T22:27:04.153Z,44.00
2022-08-31T22:29:37.179Z,44.59
2022-08-31T22:32:12.708Z,44.38
2022-08-31T22:34:46.113Z,43.97
2022-08-31T22:37:16.508Z,43.64
2022-08-31T22:39:46.699Z,43.74
2022-08-31T22:42:16.543Z,44.08
2022-08-31T22:44:46.669Z,43.24
2022-08-31T22:47:19.493Z,43.89
2022-08-31T22:49:49.349Z,43.96
2022-08-31T22:52:19.476Z,45.01
2022-08-31T22:54:49.478Z,45.17
2022-08-31T22:57:19.534Z,44.76
2022-08-31T22:59:49.886Z,43.88
2022-08-31T23:02:25.240Z,44.80
2022-08-31T23:04:55.435Z,44.90
2022-08-31T23:07:25.696Z,44.31
2022-08-31T23:09:57.838Z,44.72
2022-08-31T23:12:29.601Z,44.55
2022-08-31T23:15:00.987Z,44.46
2022-08-31T23:17:34.933Z,44.04
2022-08-31T23:20:08.823Z,44.73
2022-08-31T23:22:40.383Z,44.71
2022-08-31T23:25:14.695Z,44.97
2022-08-31T23:27:46.186Z,44.67
2022-08-31T23:30:19.289Z,45.14
2022-08-31T23:32:53.682Z,45.79
2022-08-31T23:35:25.555Z,45.44
2022-08-31T23:37:56.749Z,45.08
2022-08-31T23:40:30.167Z,45.32
2022-08-31T23:43:01.237Z,45.24
2022-08-31T23:45:32.857Z,45.08
2022-08-31T23:48:06.805Z,45.27
2022-08-31T23:50:44.306Z,45.31
2022-08-31T23:53:17.802Z,45.50
2022-08-31T23:55:50.266Z,45.75
2022-08-31T23:58:21.747Z,45.22
